createdAt,value
2018-06-02T00:01:28.613Z,19.00
2018-06-02T00:03:57.661Z,19.00
2018-06-02T00:06:26.770Z,19.10
2018-06-02T00:08:55.820Z,19.10
2018-06-02T00:11:25.645Z,19.00
2018-06-02T00:13:54.722Z,18.90
2018-06-02T00:16:24.540Z,18.80
2018-06-02T00:18:53.596Z,18.80
2018-06-02T00:21:22.652Z,18.80
2018-06-02T00:23:51.704Z,18.80
2018-06-02T00:26:21.578Z,18.70
2018-06-02T00:28:50.630Z,18.70
2018-06-02T00:31:19.676Z,18.70
2018-06-02T00:33:48.766Z,18.70
2018-06-02T00:36:17.830Z,18.70
2018-06-02T00:38:46.882Z,18.70
2018-06-02T00:41:16.007Z,18.60
2018-06-02T00:43:45.060Z,18.60
2018-06-02T00:46:14.124Z,18.60
2018-06-02T00:48:43.189Z,18.60
2018-06-02T00:51:12.264Z,18.50
2018-06-02T00:53:42.098Z,18.50
2018-06-02T00:56:11.937Z,18.40
2018-06-02T00:58:41.021Z,18.40
2018-06-02T01:01:10.082Z,18.40
2018-06-02T01:03:39.955Z,18.40
2018-06-02T01:06:08.999Z,18.40
2018-06-02T01:08:38.812Z,18.40
2018-06-02T01:11:08.673Z,18.40
2018-06-02T01:13:37.715Z,18.40
2018-06-02T01:16:07.537Z,18.40
2018-06-02T01:18:36.580Z,18.40
2018-06-02T01:21:06.522Z,18.40
2018-06-02T01:23:35.616Z,18.40
2018-06-02T01:26:04.693Z,18.40
2018-06-02T01:28:33.759Z,18.30
2018-06-02T01:31:02.841Z,18.30
2018-06-02T01:33:31.882Z,18.20
2018-06-02T01:36:00.920Z,18.30
2018-06-02T01:38:30.037Z,18.20
2018-06-02T01:40:59.080Z,18.10
2018-06-02T01:43:28.132Z,18.10
2018-06-02T01:45:57.230Z,18.10
2018-06-02T01:48:26.272Z,18.10
2018-06-02T01:50:56.140Z,18.10
2018-06-02T01:53:25.241Z,18.10
2018-06-02T01:55:54.296Z,18.10
2018-06-02T01:58:23.364Z,18.00
2018-06-02T02:00:52.740Z,18.00
2018-06-02T02:03:21.788Z,18.00
2018-06-02T02:05:50.839Z,18.00
2018-06-02T02:08:19.945Z,18.00
2018-06-02T02:10:49.021Z,18.00
2018-06-02T02:13:18.065Z,18.00
2018-06-02T02:15:47.203Z,18.00
2018-06-02T02:18:16.247Z,17.90
2018-06-02T02:20:46.059Z,18.00
2018-06-02T02:23:15.172Z,18.00
2018-06-02T02:25:44.245Z,17.90
2018-06-02T02:28:14.049Z,17.80
2018-06-02T02:30:43.926Z,17.80
2018-06-02T02:33:12.979Z,17.80
2018-06-02T02:35:42.028Z,17.80
2018-06-02T02:38:11.095Z,17.70
2018-06-02T02:40:40.164Z,17.70
2018-06-02T02:43:09.205Z,17.70
2018-06-02T02:45:38.292Z,17.70
2018-06-02T02:48:07.384Z,17.70
2018-06-02T02:50:36.427Z,17.60
2018-06-02T02:53:06.366Z,17.60
2018-06-02T02:55:35.416Z,17.60
2018-06-02T02:58:04.487Z,17.60
2018-06-02T03:00:33.577Z,17.60
2018-06-02T03:03:02.684Z,17.60
2018-06-02T03:05:31.737Z,17.60
2018-06-02T03:08:00.844Z,17.60
2018-06-02T03:10:29.909Z,17.60
2018-06-02T03:12:59.714Z,17.60
2018-06-02T03:15:29.604Z,17.50
2018-06-02T03:17:58.667Z,17.50
2018-06-02T03:20:27.732Z,17.50
2018-06-02T03:22:56.840Z,17.50
2018-06-02T03:25:25.896Z,17.40
2018-06-02T03:27:54.946Z,17.30
2018-06-02T03:30:24.090Z,17.30
2018-06-02T03:32:53.907Z,17.30
2018-06-02T03:35:23.721Z,17.20
2018-06-02T03:37:53.533Z,17.20
2018-06-02T03:40:23.348Z,17.20
2018-06-02T03:42:53.201Z,17.20
2018-06-02T03:45:22.248Z,17.20
2018-06-02T03:47:52.064Z,17.20
2018-06-02T03:50:21.952Z,17.20
2018-06-02T03:52:51.066Z,17.20
2018-06-02T03:55:20.888Z,17.30
2018-06-02T03:57:50.281Z,17.20
2018-06-02T04:00:20.096Z,17.30
2018-06-02T04:02:49.913Z,17.30
2018-06-02T04:05:19.768Z,17.30
2018-06-02T04:07:48.822Z,17.30
2018-06-02T04:10:18.712Z,17.30
2018-06-02T04:12:47.768Z,17.20
2018-06-02T04:15:16.809Z,17.30
2018-06-02T04:17:46.676Z,17.40
2018-06-02T04:20:15.732Z,17.40
2018-06-02T04:22:45.556Z,17.50
2018-06-02T04:25:15.429Z,17.50
2018-06-02T04:27:44.488Z,17.50
2018-06-02T04:30:13.535Z,17.60
2018-06-02T04:32:43.430Z,17.70
2018-06-02T04:35:12.489Z,17.70
2018-06-02T04:37:41.545Z,17.80
2018-06-02T04:40:11.467Z,17.90
2018-06-02T04:42:41.276Z,18.00
2018-06-02T04:45:11.097Z,18.20
2018-06-02T04:47:40.208Z,18.20
2018-06-02T04:50:09.253Z,18.20
2018-06-02T04:52:38.317Z,18.30
2018-06-02T04:55:07.426Z,18.40
2018-06-02T04:57:36.504Z,18.40
2018-06-02T05:00:05.565Z,18.50
2018-06-02T05:02:35.488Z,18.70
2018-06-02T05:05:04.557Z,18.70
2018-06-02T05:07:34.437Z,18.80
2018-06-02T05:10:03.542Z,18.80
2018-06-02T05:12:32.560Z,18.90
2018-06-02T05:15:02.380Z,19.00
2018-06-02T05:17:32.228Z,19.10
2018-06-02T05:20:01.287Z,19.10
2018-06-02T05:22:31.148Z,19.20
2018-06-02T05:25:00.196Z,19.10
2018-06-02T05:27:30.008Z,19.20
2018-06-02T05:29:59.852Z,19.30
2018-06-02T05:32:28.905Z,19.20
2018-06-02T05:34:58.734Z,19.30
2018-06-02T05:37:28.557Z,19.30
2018-06-02T05:39:57.603Z,19.30
2018-06-02T05:42:26.681Z,19.40
2018-06-02T05:44:55.736Z,19.50
2018-06-02T05:47:24.776Z,19.50
2018-06-02T05:49:53.901Z,19.60
2018-06-02T05:52:23.723Z,19.70
2018-06-02T05:54:53.533Z,19.70
2018-06-02T05:57:23.350Z,19.80
2018-06-02T05:59:53.170Z,19.80
2018-06-02T06:02:22.991Z,19.90
2018-06-02T06:04:52.058Z,19.90
2018-06-02T06:07:21.937Z,20.10
2018-06-02T06:09:51.045Z,20.10
2018-06-02T06:12:20.096Z,20.20
2018-06-02T06:14:49.377Z,20.20
2018-06-02T06:17:19.193Z,20.40
2018-06-02T06:19:48.246Z,20.40
2018-06-02T06:22:17.325Z,20.50
2018-06-02T06:24:46.375Z,20.50
2018-06-02T06:27:15.432Z,20.60
2018-06-02T06:29:44.775Z,20.70
2018-06-02T06:32:13.821Z,20.90
2018-06-02T06:34:42.890Z,21.10
2018-06-02T06:37:12.140Z,21.20
2018-06-02T06:39:41.960Z,21.40
2018-06-02T06:42:11.778Z,21.50
2018-06-02T06:44:41.657Z,21.70
2018-06-02T06:47:10.664Z,21.70
2018-06-02T06:49:39.777Z,21.90
2018-06-02T06:52:09.613Z,22.20
2018-06-02T06:54:38.701Z,22.20
2018-06-02T06:57:07.816Z,22.40
2018-06-02T06:59:36.872Z,22.50
2018-06-02T07:02:06.694Z,22.50
2018-06-02T07:04:36.558Z,22.60
2018-06-02T07:07:05.597Z,22.60
2018-06-02T07:09:35.428Z,22.80
2018-06-02T07:12:04.841Z,22.80
2018-06-02T07:14:34.631Z,23.00
2018-06-02T07:17:03.688Z,23.00
2018-06-02T07:19:32.751Z,23.10
2018-06-02T07:22:01.816Z,23.10
2018-06-02T07:24:30.956Z,23.20
2018-06-02T07:27:00.019Z,23.30
2018-06-02T07:29:29.061Z,23.40
2018-06-02T07:31:58.155Z,23.50
2018-06-02T07:34:27.211Z,23.60
2018-06-02T07:36:56.280Z,23.80
2018-06-02T07:39:26.095Z,23.90
2018-06-02T07:41:55.198Z,23.90
2018-06-02T07:44:24.294Z,24.00
2018-06-02T07:46:54.121Z,23.90
2018-06-02T07:49:23.161Z,23.80
2018-06-02T07:51:52.224Z,23.90
2018-06-02T07:54:21.308Z,23.90
2018-06-02T07:56:50.362Z,23.90
2018-06-02T07:59:20.205Z,24.10
2018-06-02T08:01:49.241Z,24.00
2018-06-02T08:04:18.329Z,24.00
2018-06-02T08:06:47.381Z,24.10
2018-06-02T08:09:16.456Z,24.10
2018-06-02T08:11:46.305Z,24.30
2018-06-02T08:14:15.395Z,24.30
2018-06-02T08:16:44.463Z,24.30
2018-06-02T08:19:14.397Z,24.20
2018-06-02T08:21:43.477Z,24.20
2018-06-02T08:24:12.532Z,24.10
2018-06-02T08:26:41.618Z,24.10
2018-06-02T08:29:10.799Z,24.10
2018-06-02T08:31:39.891Z,24.10
2018-06-02T08:34:08.954Z,24.30
2018-06-02T08:36:38.706Z,24.40
2018-06-02T08:39:07.820Z,24.50
2018-06-02T08:41:38.110Z,24.40
2018-06-02T08:44:07.767Z,24.40
2018-06-02T08:46:37.072Z,24.40
2018-06-02T08:49:06.920Z,24.50
2018-06-02T08:51:36.021Z,24.50
2018-06-02T08:54:05.089Z,24.60
2018-06-02T08:56:34.920Z,25.00
2018-06-02T08:59:03.980Z,25.00
2018-06-02T09:01:33.075Z,25.20
2018-06-02T09:04:02.162Z,25.30
2018-06-02T09:06:31.260Z,25.50
2018-06-02T09:09:00.330Z,25.60
2018-06-02T09:11:30.175Z,25.70
2018-06-02T09:13:59.232Z,25.60
2018-06-02T09:16:28.348Z,25.80
2018-06-02T09:18:57.429Z,25.90
2018-06-02T09:21:26.479Z,26.00
2018-06-02T09:23:55.551Z,26.10
2018-06-02T09:26:25.364Z,25.80
2018-06-02T09:28:55.223Z,25.60
2018-06-02T09:31:24.285Z,25.50
2018-06-02T09:33:54.127Z,25.30
2018-06-02T09:36:23.178Z,25.30
2018-06-02T09:38:53.037Z,25.00
2018-06-02T09:41:22.119Z,25.00
2018-06-02T09:43:51.192Z,24.80
2018-06-02T09:46:21.011Z,24.70
2018-06-02T09:48:50.090Z,24.70
2018-06-02T09:51:19.962Z,24.90
2018-06-02T09:53:49.011Z,24.90
2018-06-02T09:56:18.845Z,25.30
2018-06-02T09:58:47.997Z,25.30
2018-06-02T10:01:17.060Z,25.60
2018-06-02T10:03:46.475Z,25.80
2018-06-02T10:06:15.578Z,26.00
2018-06-02T10:08:44.638Z,26.20
2018-06-02T10:11:13.753Z,26.50
2018-06-02T10:13:42.943Z,26.80
2018-06-02T10:16:12.040Z,27.10
2018-06-02T10:18:41.135Z,27.40
2018-06-02T10:21:10.263Z,27.70
2018-06-02T10:23:39.314Z,28.10
2018-06-02T10:26:08.364Z,28.60
2018-06-02T10:28:38.247Z,29.10
2018-06-02T10:31:07.297Z,29.00
2018-06-02T10:33:36.345Z,29.20
2018-06-02T10:36:05.664Z,28.80
2018-06-02T10:38:35.464Z,27.90
2018-06-02T10:41:04.522Z,27.80
2018-06-02T10:43:33.622Z,27.50
2018-06-02T10:46:02.658Z,27.30
2018-06-02T10:48:32.476Z,26.80
2018-06-02T10:51:02.329Z,26.70
2018-06-02T10:53:31.393Z,26.60
2018-06-02T10:56:01.190Z,26.80
2018-06-02T10:58:31.067Z,27.30
2018-06-02T11:01:00.874Z,27.70
2018-06-02T11:03:29.926Z,27.60
2018-06-02T11:05:59.796Z,28.30
2018-06-02T11:08:28.844Z,28.30
2018-06-02T11:10:57.892Z,28.30
2018-06-02T11:13:32.213Z,28.40
2018-06-02T11:16:01.272Z,28.30
2018-06-02T11:18:30.321Z,28.00
2018-06-02T11:21:00.173Z,27.80
2018-06-02T11:23:29.216Z,27.80
2018-06-02T11:25:58.262Z,27.90
2018-06-02T11:28:27.390Z,28.00
2018-06-02T11:30:57.208Z,28.70
2018-06-02T11:33:26.297Z,28.70
2018-06-02T11:35:55.516Z,29.10
2018-06-02T11:38:25.255Z,29.00
2018-06-02T11:40:54.306Z,29.00
2018-06-02T11:43:23.433Z,29.00
2018-06-02T11:45:53.244Z,29.50
2018-06-02T11:48:23.053Z,29.60
2018-06-02T11:50:52.927Z,30.20
2018-06-02T11:53:21.978Z,30.20
2018-06-02T11:55:51.021Z,30.50
2018-06-02T11:58:20.370Z,30.40
2018-06-02T12:00:49.421Z,29.90
2018-06-02T12:03:18.478Z,29.90
2018-06-02T12:05:47.571Z,30.30
2018-06-02T12:08:16.619Z,30.80
2018-06-02T12:10:45.668Z,31.40
2018-06-02T12:13:14.883Z,31.70
2018-06-02T12:15:44.037Z,32.00
2018-06-02T12:18:13.077Z,31.70
2018-06-02T12:20:42.193Z,30.80
2018-06-02T12:23:11.286Z,30.10
2018-06-02T12:25:40.316Z,29.40
2018-06-02T12:28:09.403Z,28.60
2018-06-02T12:30:39.196Z,27.50
2018-06-02T12:33:08.284Z,27.50
2018-06-02T12:35:37.346Z,27.20
2018-06-02T12:38:06.400Z,26.50
2018-06-02T12:40:36.261Z,25.50
2018-06-02T12:43:05.302Z,25.50
2018-06-02T12:45:35.169Z,25.50
2018-06-02T12:48:05.240Z,25.70
2018-06-02T12:50:35.039Z,25.80
2018-06-02T12:53:04.854Z,25.80
2018-06-02T12:55:34.680Z,25.70
2018-06-02T12:58:03.729Z,25.70
2018-06-02T13:00:32.951Z,25.50
2018-06-02T13:03:02.009Z,25.30
2018-06-02T13:05:31.065Z,25.10
2018-06-02T13:08:00.157Z,25.00
2018-06-02T13:10:29.203Z,24.80
2018-06-02T13:12:58.251Z,24.60
2018-06-02T13:15:27.388Z,24.40
2018-06-02T13:17:56.591Z,24.30
2018-06-02T13:20:25.629Z,24.10
2018-06-02T13:22:55.485Z,23.90
2018-06-02T13:25:24.529Z,23.90
2018-06-02T13:27:54.355Z,23.70
2018-06-02T13:30:23.442Z,23.70
2018-06-02T13:32:53.263Z,23.50
2018-06-02T13:35:22.293Z,23.50
2018-06-02T13:37:51.345Z,23.40
2018-06-02T13:40:21.169Z,23.40
2018-06-02T13:42:50.278Z,23.30
2018-06-02T13:45:19.325Z,23.10
2018-06-02T13:47:49.157Z,23.00
2018-06-02T13:50:19.055Z,22.90
2018-06-02T13:52:48.117Z,22.80
2018-06-02T13:55:17.177Z,22.80
2018-06-02T13:57:46.297Z,22.80
2018-06-02T14:00:15.337Z,22.80
2018-06-02T14:02:45.160Z,22.80
2018-06-02T14:05:15.048Z,22.70
2018-06-02T14:07:44.119Z,22.70
2018-06-02T14:10:13.158Z,22.70
2018-06-02T14:12:43.119Z,22.60
2018-06-02T14:15:12.157Z,22.60
2018-06-02T14:17:41.207Z,22.60
2018-06-02T14:20:10.517Z,22.60
2018-06-02T14:22:39.561Z,22.50
2018-06-02T14:25:09.371Z,22.50
2018-06-02T14:27:39.329Z,22.40
2018-06-02T14:30:08.375Z,22.40
2018-06-02T14:32:37.396Z,22.40
2018-06-02T14:35:06.518Z,22.30
2018-06-02T14:37:35.621Z,22.30
2018-06-02T14:40:04.697Z,22.30
2018-06-02T14:42:33.819Z,22.30
2018-06-02T14:45:02.862Z,22.30
2018-06-02T14:47:31.921Z,22.30
2018-06-02T14:50:01.033Z,22.00
2018-06-02T14:52:30.850Z,21.60
2018-06-02T14:55:00.665Z,21.60
2018-06-02T14:57:30.478Z,21.60
2018-06-02T15:00:00.302Z,21.70
2018-06-02T15:02:29.369Z,21.60
2018-06-02T15:04:58.429Z,21.70
2018-06-02T15:07:27.530Z,21.70
2018-06-02T15:09:56.574Z,21.70
2018-06-02T15:12:26.392Z,21.80
2018-06-02T15:14:55.565Z,21.80
2018-06-02T15:17:25.395Z,21.80
2018-06-02T15:19:55.208Z,21.90
2018-06-02T15:22:24.293Z,21.90
2018-06-02T15:24:54.104Z,22.00
2018-06-02T15:27:24.021Z,22.00
2018-06-02T15:29:53.833Z,22.10
2018-06-02T15:32:23.641Z,22.20
2018-06-02T15:34:53.464Z,22.30
2018-06-02T15:37:23.278Z,22.50
2018-06-02T15:39:53.103Z,22.80
2018-06-02T15:42:22.149Z,22.80
2018-06-02T15:44:51.248Z,23.20
2018-06-02T15:47:20.303Z,23.70
2018-06-02T15:49:49.438Z,24.30
2018-06-02T15:52:18.546Z,24.70
2018-06-02T15:54:47.590Z,25.40
2018-06-02T15:57:16.651Z,26.00
2018-06-02T15:59:46.508Z,26.90
2018-06-02T16:02:15.560Z,26.80
2018-06-02T16:04:45.376Z,27.30
2018-06-02T16:07:15.243Z,27.50
2018-06-02T16:09:44.291Z,27.50
2018-06-02T16:12:13.331Z,27.50
2018-06-02T16:14:42.434Z,27.70
2018-06-02T16:17:11.493Z,28.00
2018-06-02T16:19:40.533Z,28.20
2018-06-02T16:22:09.635Z,28.30
2018-06-02T16:24:38.725Z,28.40
2018-06-02T16:27:07.770Z,28.60
2018-06-02T16:29:36.844Z,28.70
2018-06-02T16:32:06.688Z,29.20
2018-06-02T16:34:35.720Z,29.10
2018-06-02T16:37:04.833Z,29.40
2018-06-02T16:39:34.642Z,30.10
2018-06-02T16:42:04.486Z,30.40
2018-06-02T16:44:33.535Z,30.40
2018-06-02T16:47:02.577Z,30.50
2018-06-02T16:49:31.721Z,30.30
2018-06-02T16:52:01.529Z,29.60
2018-06-02T16:54:30.583Z,29.60
2018-06-02T16:56:59.698Z,28.80
2018-06-02T16:59:29.500Z,28.40
2018-06-02T17:01:58.590Z,28.40
2018-06-02T17:04:27.677Z,28.20
2018-06-02T17:06:56.722Z,27.90
2018-06-02T17:09:25.771Z,27.60
2018-06-02T17:11:54.894Z,26.90
2018-06-02T17:14:23.941Z,27.10
2018-06-02T17:16:52.989Z,26.90
2018-06-02T17:19:22.192Z,26.50
2018-06-02T17:21:51.241Z,26.20
2018-06-02T17:24:20.292Z,25.80
2018-06-02T17:26:49.632Z,25.50
2018-06-02T17:29:18.674Z,25.10
2018-06-02T17:31:47.729Z,24.80
2018-06-02T17:34:16.837Z,24.50
2018-06-02T17:36:45.884Z,24.30
2018-06-02T17:39:15.706Z,23.90
2018-06-02T17:41:49.785Z,23.60
2018-06-02T17:44:18.831Z,23.60
2018-06-02T17:46:47.902Z,23.40
2018-06-02T17:49:17.722Z,23.20
2018-06-02T17:51:46.769Z,23.10
2018-06-02T17:54:15.893Z,23.00
2018-06-02T17:56:44.965Z,22.70
2018-06-02T17:59:15.493Z,22.40
2018-06-02T18:01:45.680Z,22.30
2018-06-02T18:04:16.130Z,22.10
2018-06-02T18:06:46.193Z,22.10
2018-06-02T18:09:16.000Z,21.90
2018-06-02T18:11:45.826Z,21.80
2018-06-02T18:14:14.882Z,21.80
2018-06-02T18:16:43.918Z,21.70
2018-06-02T18:19:13.029Z,21.60
2018-06-02T18:21:42.101Z,21.50
2018-06-02T18:24:11.932Z,21.30
2018-06-02T18:26:41.069Z,21.30
2018-06-02T18:29:10.189Z,21.20
2018-06-02T18:31:40.002Z,21.00
2018-06-02T18:34:09.829Z,20.90
2018-06-02T18:36:38.881Z,20.90
2018-06-02T18:39:07.938Z,20.90
2018-06-02T18:41:37.365Z,20.80
2018-06-02T18:44:06.428Z,20.70
2018-06-02T18:46:35.461Z,20.60
2018-06-02T18:49:04.532Z,20.50
2018-06-02T18:51:33.582Z,20.40
2018-06-02T18:54:03.401Z,20.30
2018-06-02T18:56:33.217Z,20.20
2018-06-02T18:59:03.026Z,20.20
2018-06-02T19:01:32.917Z,20.00
2018-06-02T19:04:01.958Z,20.00
2018-06-02T19:06:30.998Z,19.90
2018-06-02T19:09:00.152Z,19.90
2018-06-02T19:11:29.943Z,19.80
2018-06-02T19:13:59.757Z,19.80
2018-06-02T19:16:29.564Z,19.80
2018-06-02T19:18:59.382Z,19.70
2018-06-02T19:21:29.196Z,19.70
2018-06-02T19:23:58.268Z,19.70
2018-06-02T19:26:27.368Z,19.60
2018-06-02T19:28:56.406Z,19.70
2018-06-02T19:31:25.511Z,19.60
2018-06-02T19:33:54.628Z,19.60
2018-06-02T19:36:23.670Z,19.50
2018-06-02T19:38:52.720Z,19.60
2018-06-02T19:41:21.842Z,19.50
2018-06-02T19:43:51.673Z,19.30
2018-06-02T19:46:20.713Z,19.30
2018-06-02T19:48:49.785Z,19.30
2018-06-02T19:51:18.857Z,19.30
2018-06-02T19:53:47.914Z,19.20
2018-06-02T19:56:17.154Z,19.20
2018-06-02T19:58:46.194Z,19.10
2018-06-02T20:01:15.255Z,19.10
2018-06-02T20:03:44.316Z,19.00
2018-06-02T20:06:14.129Z,19.00
2018-06-02T20:08:43.929Z,18.90
2018-06-02T20:11:13.137Z,18.90
2018-06-02T20:13:43.023Z,18.90
2018-06-02T20:16:12.052Z,18.90
2018-06-02T20:18:41.952Z,18.80
2018-06-02T20:21:10.986Z,18.80
2018-06-02T20:23:40.030Z,18.80
2018-06-02T20:26:09.116Z,18.80
2018-06-02T20:28:38.149Z,18.80
2018-06-02T20:31:07.198Z,18.80
2018-06-02T20:33:36.345Z,18.70
2018-06-02T20:36:05.461Z,18.70
2018-06-02T20:38:34.465Z,18.70
2018-06-02T20:41:03.562Z,18.70
2018-06-02T20:43:32.608Z,18.60
2018-06-02T20:46:02.414Z,18.70
2018-06-02T20:48:32.245Z,18.60
2018-06-02T20:51:01.313Z,18.60
2018-06-02T20:53:30.360Z,18.60
2018-06-02T20:55:59.426Z,18.60
2018-06-02T20:58:28.462Z,18.50
2018-06-02T21:00:57.506Z,18.50
2018-06-02T21:03:27.350Z,18.50
2018-06-02T21:05:56.392Z,18.40
2018-06-02T21:08:25.460Z,18.40
2018-06-02T21:10:55.325Z,18.40
2018-06-02T21:13:24.369Z,18.40
2018-06-02T21:15:54.197Z,18.40
2018-06-02T21:18:23.298Z,18.40
2018-06-02T21:20:52.351Z,18.40
2018-06-02T21:23:21.441Z,18.40
2018-06-02T21:25:50.516Z,18.40
2018-06-02T21:28:19.570Z,18.40
2018-06-02T21:30:48.616Z,18.40
2018-06-02T21:33:17.700Z,18.40
2018-06-02T21:35:46.754Z,18.30
2018-06-02T21:38:15.833Z,18.30
2018-06-02T21:40:44.912Z,18.30
2018-06-02T21:43:13.944Z,18.30
2018-06-02T21:45:43.038Z,18.30
2018-06-02T21:48:12.869Z,18.20
2018-06-02T21:50:42.701Z,18.20
2018-06-02T21:53:11.755Z,18.20
2018-06-02T21:55:40.879Z,18.20
2018-06-02T21:58:10.708Z,18.20
2018-06-02T22:00:39.781Z,18.20
2018-06-02T22:03:09.602Z,18.20
2018-06-02T22:05:39.428Z,18.20
2018-06-02T22:08:08.493Z,18.20
2018-06-02T22:10:38.305Z,18.10
2018-06-02T22:13:08.218Z,18.10
2018-06-02T22:16:00.678Z,18.10
2018-06-02T22:18:30.489Z,18.10
2018-06-02T22:21:00.322Z,18.20
2018-06-02T22:23:29.369Z,18.20
2018-06-02T22:26:21.430Z,18.20
2018-06-02T22:28:50.493Z,18.20
2018-06-02T22:31:19.572Z,18.10
2018-06-02T22:33:48.608Z,18.10
2018-06-02T22:36:18.513Z,18.10
2018-06-02T22:38:47.546Z,18.10
2018-06-02T22:41:16.594Z,18.10
2018-06-02T22:43:45.667Z,18.10
2018-06-02T22:46:14.771Z,18.10
2018-06-02T22:48:43.826Z,18.10
2018-06-02T22:51:12.873Z,18.10
2018-06-02T22:53:41.961Z,18.10
2018-06-02T22:56:11.012Z,18.10
2018-06-02T22:58:40.096Z,18.10
2018-06-02T23:01:09.142Z,18.10
2018-06-02T23:03:38.209Z,18.10
2018-06-02T23:06:07.285Z,18.10
2018-06-02T23:08:36.393Z,18.10
2018-06-02T23:11:05.449Z,18.10
2018-06-02T23:13:35.297Z,18.00
2018-06-02T23:16:04.333Z,18.00
2018-06-02T23:18:33.402Z,18.00
2018-06-02T23:21:02.514Z,18.00
2018-06-02T23:23:31.573Z,18.00
2018-06-02T23:26:00.663Z,18.00
2018-06-02T23:28:29.740Z,18.00
2018-06-02T23:30:59.573Z,18.00
2018-06-02T23:33:28.647Z,17.90
2018-06-02T23:35:58.470Z,17.90
2018-06-02T23:38:27.521Z,17.90
2018-06-02T23:40:56.592Z,17.90
2018-06-02T23:43:25.637Z,17.90
2018-06-02T23:45:55.480Z,17.80
2018-06-02T23:48:24.592Z,17.80
2018-06-02T23:50:53.635Z,17.80
2018-06-02T23:53:23.444Z,17.70
2018-06-02T23:55:53.342Z,17.80
2018-06-02T23:58:22.391Z,17.80
